Time;durP1;ratioP1;P1;durP2;ratioP2;P2;SDS_P1;SDS_P2;PMS_P1;PMS_P2;Temp;Humidity;BMP_temperature;BMP_pressure;BME280_temperature;BME280_humidity;BME280_pressure;Samples;Min_cycle;Max_cycle;Signal;HPM_P1;HPM_P2
2023/10/04 00:02:13;;;;;;;8.38;3.10;;;12.60;99.90;;;;;;5016703;28;20052;-40
2023/10/04 00:04:43;;;;;;;6.95;3.38;;;12.60;99.90;;;;;;5025999;28;20107;-41
2023/10/04 00:07:11;;;;;;;7.47;3.60;;;12.60;99.90;;;;;;5017305;28;20054;-41
2023/10/04 00:09:39;;;;;;;5.20;2.92;;;12.50;99.90;;;;;;5025301;28;20065;-40
2023/10/04 00:12:08;;;;;;;7.32;3.85;;;12.50;99.90;;;;;;5025552;28;20042;-40
2023/10/04 00:14:35;;;;;;;6.22;2.90;;;12.50;99.90;;;;;;5020079;28;20083;-42
2023/10/04 00:17:03;;;;;;;8.30;4.07;;;12.40;99.90;;;;;;5026541;28;20140;-41
2023/10/04 00:19:32;;;;;;;5.65;3.55;;;12.30;99.90;;;;;;5029775;28;20454;-41
2023/10/04 00:22:01;;;;;;;8.32;3.63;;;12.20;99.90;;;;;;5036694;28;20050;-41
2023/10/04 00:24:29;;;;;;;8.10;3.40;;;12.20;99.90;;;;;;5025424;28;20481;-41
2023/10/04 00:26:57;;;;;;;6.85;3.80;;;12.20;99.90;;;;;;5026214;28;20407;-41
2023/10/04 00:29:25;;;;;;;7.15;3.60;;;12.10;99.90;;;;;;5021820;28;20453;-40
2023/10/04 00:31:53;;;;;;;6.50;3.70;;;12.10;99.90;;;;;;5031626;28;20058;-41
2023/10/04 00:34:20;;;;;;;8.93;3.80;;;12.10;99.90;;;;;;5019376;28;20454;-42
2023/10/04 00:36:48;;;;;;;5.78;3.38;;;12.00;99.90;;;;;;5013972;28;20128;-41
2023/10/04 00:39:18;;;;;;;7.57;3.97;;;12.00;99.90;;;;;;5013244;28;20045;-42
2023/10/04 00:41:46;;;;;;;7.72;3.75;;;12.00;99.90;;;;;;5017307;28;20045;-40
2023/10/04 00:44:14;;;;;;;7.68;3.97;;;12.00;99.90;;;;;;5017534;28;20064;-42
2023/10/04 00:46:45;;;;;;;7.38;4.35;;;11.90;99.90;;;;;;5019959;28;20045;-40
2023/10/04 00:49:13;;;;;;;6.88;4.13;;;12.00;99.90;;;;;;5014593;28;20133;-41
2023/10/04 00:51:40;;;;;;;7.13;3.72;;;12.00;99.90;;;;;;5021284;28;20053;-41
2023/10/04 00:54:10;;;;;;;8.35;3.88;;;12.00;99.90;;;;;;5020536;28;20430;-42
2023/10/04 00:56:38;;;;;;;6.72;3.90;;;12.00;99.90;;;;;;5025026;28;20052;-39
2023/10/04 00:59:07;;;;;;;8.25;3.45;;;12.00;99.90;;;;;;5015527;28;20103;-41
2023/10/04 01:01:35;;;;;;;6.13;3.78;;;12.10;99.90;;;;;;5026183;28;20064;-40
2023/10/04 01:04:02;;;;;;;6.65;3.80;;;12.10;99.90;;;;;;5024499;28;20083;-40
2023/10/04 01:06:31;;;;;;;5.93;3.40;;;12.10;99.90;;;;;;5017874;28;20054;-40
2023/10/04 01:09:00;;;;;;;8.27;4.15;;;12.10;99.90;;;;;;5020115;28;20627;-40
2023/10/04 01:11:47;;;;;;;8.38;3.83;;;12.10;99.90;;;;;;5018093;28;20534;-40
2023/10/04 01:14:25;;;;;;;5.95;3.75;;;12.10;99.90;;;;;;5016948;28;20111;-40
2023/10/04 01:16:53;;;;;;;8.27;4.57;;;12.00;99.90;;;;;;5011344;28;20141;-42
2023/10/04 01:19:22;;;;;;;6.57;4.18;;;12.00;99.90;;;;;;5011321;28;20038;-41
2023/10/04 01:21:50;;;;;;;9.10;4.10;;;12.00;99.90;;;;;;5023700;28;20072;-42
2023/10/04 01:24:17;;;;;;;9.13;4.10;;;12.00;99.90;;;;;;5013242;28;20518;-40
2023/10/04 01:26:45;;;;;;;7.40;3.60;;;11.90;99.90;;;;;;5028808;28;20124;-41
2023/10/04 01:29:15;;;;;;;9.02;3.72;;;11.90;99.90;;;;;;5028257;28;20072;-40
2023/10/04 01:31:43;;;;;;;7.63;4.55;;;11.90;99.90;;;;;;5019436;28;20438;-41
2023/10/04 01:34:13;;;;;;;7.75;3.92;;;11.90;99.90;;;;;;5024789;28;20080;-42
2023/10/04 01:36:41;;;;;;;6.65;4.00;;;11.90;99.90;;;;;;5023580;28;20057;-41
2023/10/04 01:39:15;;;;;;;6.78;4.00;;;11.90;99.90;;;;;;5021101;28;20082;-42
2023/10/04 01:41:43;;;;;;;8.52;4.35;;;11.80;99.90;;;;;;5017375;28;20057;-40
2023/10/04 01:44:10;;;;;;;7.93;4.13;;;11.80;99.90;;;;;;5015189;28;20128;-41
2023/10/04 01:46:38;;;;;;;7.15;3.95;;;11.80;99.90;;;;;;5018358;28;20081;-42
2023/10/04 01:49:09;;;;;;;8.90;4.70;;;11.70;99.90;;;;;;5021243;28;20045;-41
2023/10/04 01:51:36;;;;;;;6.80;4.00;;;11.70;99.90;;;;;;5023240;28;20046;-39
2023/10/04 01:54:04;;;;;;;13.95;4.20;;;11.70;99.90;;;;;;5020009;28;20084;-41
2023/10/04 01:56:32;;;;;;;6.97;3.92;;;11.70;99.90;;;;;;5015924;28;20479;-41
2023/10/04 01:58:59;;;;;;;8.10;4.63;;;11.60;99.90;;;;;;5014290;28;20149;-40
2023/10/04 02:01:27;;;;;;;6.50;3.83;;;11.60;99.90;;;;;;5016896;28;20095;-41
2023/10/04 02:03:55;;;;;;;7.60;4.57;;;11.60;99.90;;;;;;5016122;28;20057;-41
2023/10/04 02:06:22;;;;;;;6.72;4.38;;;11.50;99.90;;;;;;5015099;28;20058;-42
2023/10/04 02:08:50;;;;;;;6.93;4.07;;;11.60;99.90;;;;;;5030637;28;20049;-42
2023/10/04 02:11:21;;;;;;;6.30;3.78;;;11.50;99.90;;;;;;5029400;28;20465;-41
2023/10/04 02:13:50;;;;;;;;;;;11.50;99.90;;;;;;5013013;28;20108;-40
2023/10/04 02:16:21;;;;;;;9.10;4.32;;;11.50;99.90;;;;;;5018458;28;20011;-42
2023/10/04 02:18:49;;;;;;;7.72;4.40;;;11.50;99.90;;;;;;5020327;28;20425;-41
2023/10/04 02:21:18;;;;;;;7.65;4.13;;;11.50;99.90;;;;;;5020605;28;20434;-43
2023/10/04 02:23:45;;;;;;;5.18;3.90;;;11.50;99.90;;;;;;5022302;28;20052;-41
2023/10/04 02:26:12;;;;;;;7.57;3.97;;;11.50;99.90;;;;;;5017631;28;20057;-42
2023/10/04 02:28:41;;;;;;;6.95;4.13;;;11.40;99.90;;;;;;5018541;28;20076;-41
2023/10/04 02:31:08;;;;;;;9.10;3.97;;;11.40;99.90;;;;;;5026149;28;20054;-41
2023/10/04 02:33:38;;;;;;;6.25;3.90;;;11.40;99.90;;;;;;5022743;28;20079;-41
2023/10/04 02:36:09;;;;;;;7.45;4.18;;;11.40;99.90;;;;;;5022740;28;20041;-41
2023/10/04 02:38:36;;;;;;;6.90;3.97;;;11.50;99.90;;;;;;5016376;28;20558;-42
2023/10/04 02:41:10;;;;;;;7.00;4.03;;;11.50;99.90;;;;;;5021257;28;20041;-41
2023/10/04 02:43:37;;;;;;;7.57;3.67;;;11.50;99.90;;;;;;5014666;28;20045;-42
2023/10/04 02:46:05;;;;;;;10.35;5.15;;;11.50;99.90;;;;;;5019768;28;20048;-40
2023/10/04 02:48:35;;;;;;;7.43;4.82;;;11.50;99.90;;;;;;5010225;28;20065;-41
2023/10/04 02:51:04;;;;;;;8.13;4.88;;;11.60;99.90;;;;;;5014625;28;20116;-40
2023/10/04 02:53:32;;;;;;;8.38;5.10;;;11.60;99.90;;;;;;5022245;28;20049;-42
2023/10/04 02:56:06;;;;;;;8.30;4.93;;;11.50;99.90;;;;;;5029844;28;20114;-42
2023/10/04 02:58:38;;;;;;;9.40;4.75;;;11.50;99.90;;;;;;5018720;28;20126;-41
2023/10/04 03:01:05;;;;;;;8.93;4.75;;;11.50;99.90;;;;;;5027449;28;20148;-41
2023/10/04 03:03:35;;;;;;;8.65;5.22;;;11.40;99.90;;;;;;5017343;28;20064;-41
2023/10/04 03:06:04;;;;;;;8.57;5.05;;;11.40;99.90;;;;;;5022068;28;20445;-42
2023/10/04 03:08:33;;;;;;;8.20;5.38;;;11.40;99.90;;;;;;5016517;28;20045;-40
2023/10/04 03:11:03;;;;;;;7.15;4.30;;;11.40;99.90;;;;;;5017897;28;20052;-42
2023/10/04 03:13:34;;;;;;;9.48;5.22;;;11.40;99.90;;;;;;5010840;28;20113;-41
2023/10/04 03:16:03;;;;;;;10.73;4.63;;;11.40;99.90;;;;;;5011406;28;20038;-42
2023/10/04 03:18:33;;;;;;;7.65;4.47;;;11.30;99.90;;;;;;5011027;28;20168;-40
2023/10/04 03:23:42;;;;;;;8.75;5.00;;;11.20;99.90;;;;;;5009539;28;20050;-40
2023/10/04 03:26:18;;;;;;;9.50;4.95;;;11.20;99.90;;;;;;5014476;28;20061;-41
2023/10/04 03:28:52;;;;;;;7.93;5.00;;;11.20;99.90;;;;;;5009644;28;20057;-41
2023/10/04 03:31:24;;;;;;;8.68;5.18;;;11.20;99.90;;;;;;5010210;28;20061;-41
2023/10/04 03:33:55;;;;;;;10.48;5.28;;;11.10;99.90;;;;;;5013958;28;20041;-41
2023/10/04 03:36:26;;;;;;;8.60;5.40;;;11.10;99.90;;;;;;5017648;28;20041;-41
2023/10/04 03:38:58;;;;;;;10.15;5.60;;;11.10;99.90;;;;;;5016295;28;20041;-41
2023/10/04 03:41:27;;;;;;;7.18;4.57;;;11.00;99.90;;;;;;5011935;28;20034;-41
2023/10/04 03:44:02;;;;;;;9.13;5.18;;;11.00;99.90;;;;;;5017308;28;20050;-42
2023/10/04 03:46:31;;;;;;;11.73;5.20;;;11.00;99.90;;;;;;5014768;28;20049;-43
2023/10/04 03:49:02;;;;;;;7.88;4.63;;;10.90;99.90;;;;;;5014391;28;20060;-42
2023/10/04 03:51:30;;;;;;;8.65;5.10;;;10.90;99.90;;;;;;5009406;28;20156;-42
2023/10/04 03:54:06;;;;;;;9.60;5.10;;;10.90;99.90;;;;;;5009393;28;20046;-41
2023/10/04 03:56:37;;;;;;;10.70;5.13;;;11.00;99.90;;;;;;5007724;28;20514;-41
2023/10/04 03:59:07;;;;;;;8.85;5.30;;;11.00;99.90;;;;;;5015058;28;20096;-43
2023/10/04 04:01:37;;;;;;;9.05;4.90;;;11.10;99.90;;;;;;5010790;28;20057;-43
2023/10/04 04:04:06;;;;;;;9.52;5.25;;;11.00;99.90;;;;;;5014013;28;20050;-41
2023/10/04 04:06:34;;;;;;;9.57;5.70;;;11.00;99.90;;;;;;4995231;28;20065;-43
2023/10/04 04:09:06;;;;;;;8.32;5.90;;;10.90;99.90;;;;;;5010646;28;20042;-41
2023/10/04 04:11:34;;;;;;;;;;;10.90;99.90;;;;;;5014196;28;20057;-42
2023/10/04 04:14:04;;;;;;;10.27;5.78;;;10.80;99.90;;;;;;5012429;28;19971;-41
2023/10/04 04:16:31;;;;;;;9.38;6.13;;;10.80;99.90;;;;;;5016087;28;20042;-42
2023/10/04 04:18:59;;;;;;;11.55;5.68;;;10.90;99.90;;;;;;5014124;28;20476;-42
2023/10/04 04:21:29;;;;;;;10.02;5.53;;;10.80;99.90;;;;;;5008655;28;20099;-42
2023/10/04 04:23:57;;;;;;;10.73;5.18;;;10.80;99.90;;;;;;5013616;28;20420;-42
2023/10/04 04:26:27;;;;;;;8.52;5.38;;;10.80;99.90;;;;;;5013450;28;20046;-42
2023/10/04 04:28:56;;;;;;;9.43;5.35;;;10.70;99.90;;;;;;5010273;28;20045;-41
2023/10/04 04:31:25;;;;;;;12.68;6.60;;;10.70;99.90;;;;;;5009310;28;20046;-41
2023/10/04 04:33:55;;;;;;;13.32;6.18;;;10.80;99.90;;;;;;5012461;28;20136;-41
2023/10/04 04:36:26;;;;;;;9.90;5.43;;;10.70;99.90;;;;;;5026240;28;20072;-41
2023/10/04 04:38:58;;;;;;;9.10;5.70;;;10.70;99.90;;;;;;5008777;28;20164;-42
2023/10/04 04:41:29;;;;;;;9.57;5.32;;;10.70;99.90;;;;;;5008374;28;20042;-41
2023/10/04 04:44:06;;;;;;;12.02;6.78;;;10.70;99.90;;;;;;5011015;28;20045;-41
2023/10/04 04:46:34;;;;;;;12.00;6.90;;;10.60;99.90;;;;;;5017346;28;20452;-41
2023/10/04 04:49:02;;;;;;;13.65;7.07;;;10.60;99.90;;;;;;4990497;28;20514;-41
2023/10/04 04:51:31;;;;;;;13.10;6.90;;;10.60;99.90;;;;;;5008727;28;20053;-41
2023/10/04 04:53:59;;;;;;;11.32;7.03;;;10.50;99.90;;;;;;5009021;28;20057;-41
2023/10/04 04:56:31;;;;;;;11.05;6.25;;;10.50;99.90;;;;;;5009981;28;20096;-41
2023/10/04 04:59:07;;;;;;;9.10;6.90;;;10.50;99.90;;;;;;5010644;28;20514;-41
2023/10/04 05:01:39;;;;;;;12.38;6.95;;;10.50;99.90;;;;;;5029078;28;20058;-41
2023/10/04 05:04:08;;;;;;;11.70;7.03;;;10.40;99.90;;;;;;5031937;28;20125;-41
2023/10/04 05:06:36;;;;;;;11.95;7.53;;;10.40;99.90;;;;;;5022292;28;20118;-41
2023/10/04 05:09:04;;;;;;;12.50;6.57;;;10.40;99.90;;;;;;5028904;28;20097;-40
2023/10/04 05:11:36;;;;;;;13.60;8.38;;;10.40;99.90;;;;;;5021176;28;20060;-41
2023/10/04 05:14:05;;;;;;;12.40;7.38;;;10.50;99.90;;;;;;5021248;28;20064;-41
2023/10/04 05:16:34;;;;;;;16.40;8.85;;;10.40;99.90;;;;;;5030605;28;20104;-42
2023/10/04 05:19:04;;;;;;;11.23;7.53;;;10.50;99.90;;;;;;5030642;28;20068;-41
2023/10/04 05:21:32;;;;;;;12.35;7.57;;;10.50;99.90;;;;;;5026238;28;20065;-39
2023/10/04 05:23:59;;;;;;;14.85;8.80;;;10.50;99.90;;;;;;5028130;28;20050;-42
2023/10/04 05:26:27;;;;;;;12.10;8.18;;;10.50;99.90;;;;;;5020076;28;20060;-42
2023/10/04 05:28:55;;;;;;;14.75;8.35;;;10.50;99.90;;;;;;5016238;28;20124;-40
2023/10/04 05:31:23;;;;;;;16.00;8.38;;;10.50;99.90;;;;;;5022380;28;20064;-40
2023/10/04 05:33:50;;;;;;;11.73;8.00;;;10.50;99.90;;;;;;5017758;28;20046;-40
2023/10/04 05:36:18;;;;;;;13.10;7.70;;;10.50;99.90;;;;;;5019422;28;20037;-41
2023/10/04 05:38:46;;;;;;;12.35;7.63;;;10.50;99.90;;;;;;5022474;28;20046;-39
2023/10/04 05:41:14;;;;;;;14.32;7.70;;;10.50;99.90;;;;;;5017915;28;20374;-41
2023/10/04 05:43:43;;;;;;;13.45;8.25;;;10.60;99.90;;;;;;5021877;28;20535;-38
2023/10/04 05:46:10;;;;;;;14.75;8.27;;;10.60;99.90;;;;;;5017796;28;20049;-40
2023/10/04 05:48:38;;;;;;;15.35;9.27;;;10.70;99.90;;;;;;5015654;28;20108;-41
2023/10/04 05:51:06;;;;;;;14.10;9.15;;;10.70;99.90;;;;;;5015891;28;20488;-42
2023/10/04 05:53:35;;;;;;;14.25;9.07;;;10.80;99.90;;;;;;5014039;28;20061;-42
2023/10/04 05:56:02;;;;;;;15.20;8.98;;;10.80;99.90;;;;;;5010975;28;20053;-41
2023/10/04 05:58:31;;;;;;;14.75;9.40;;;10.80;99.90;;;;;;5012102;28;20115;-42
2023/10/04 06:00:59;;;;;;;17.30;9.52;;;10.90;99.90;;;;;;5017012;28;20103;-41
2023/10/04 06:03:27;;;;;;;14.98;9.57;;;10.90;99.90;;;;;;5010222;28;20108;-40
2023/10/04 06:05:59;;;;;;;16.42;8.70;;;10.90;99.90;;;;;;5010532;28;20053;-40
2023/10/04 06:08:27;;;;;;;16.35;9.27;;;10.90;99.90;;;;;;5017197;28;20050;-40
2023/10/04 06:10:54;;;;;;;13.75;8.75;;;11.00;99.90;;;;;;5012827;28;20566;-39
2023/10/04 06:13:25;;;;;;;13.60;8.77;;;11.00;99.90;;;;;;5021320;28;20097;-41
2023/10/04 06:15:58;;;;;;;12.90;8.98;;;11.10;99.90;;;;;;5017727;28;20054;-42
2023/10/04 06:18:28;;;;;;;17.05;8.85;;;11.10;99.90;;;;;;5021121;28;20050;-41
2023/10/04 06:20:59;;;;;;;15.30;9.57;;;11.20;99.90;;;;;;5015907;28;20042;-41
2023/10/04 06:23:29;;;;;;;15.52;9.07;;;11.20;99.90;;;;;;5020795;28;20042;-40
2023/10/04 06:25:56;;;;;;;14.27;8.48;;;11.30;99.90;;;;;;5015527;28;20042;-43
2023/10/04 06:28:24;;;;;;;13.48;8.75;;;11.30;99.90;;;;;;5020982;28;20133;-42
2023/10/04 06:30:52;;;;;;;15.43;9.85;;;11.30;99.90;;;;;;5017384;28;20053;-42
2023/10/04 06:33:20;;;;;;;13.20;9.13;;;11.40;99.90;;;;;;5022698;28;20142;-43
2023/10/04 06:35:47;;;;;;;13.57;9.90;;;11.40;99.90;;;;;;5033373;28;20048;-43
2023/10/04 06:38:15;;;;;;;13.50;9.82;;;11.40;99.90;;;;;;5029569;28;20046;-42
2023/10/04 06:40:42;;;;;;;14.80;10.88;;;11.30;99.90;;;;;;5036923;28;20132;-39
2023/10/04 06:43:13;;;;;;;13.85;9.95;;;11.30;99.90;;;;;;5031250;28;20113;-42
2023/10/04 06:45:41;;;;;;;13.68;9.30;;;11.30;99.90;;;;;;5021873;28;20065;-42
2023/10/04 06:48:08;;;;;;;15.40;10.10;;;11.30;99.90;;;;;;5032878;28;20056;-43
2023/10/04 06:50:38;;;;;;;17.55;10.45;;;11.20;99.90;;;;;;5033066;28;20273;-42
2023/10/04 06:53:08;;;;;;;19.63;10.77;;;11.10;99.90;;;;;;5026780;28;20094;-43
2023/10/04 06:55:37;;;;;;;13.32;9.90;;;11.10;99.90;;;;;;5026330;28;20057;-43
2023/10/04 06:58:06;;;;;;;15.55;10.13;;;11.20;99.90;;;;;;5030058;28;20073;-42
2023/10/04 07:00:37;;;;;;;15.35;10.40;;;11.30;99.90;;;;;;5033018;28;20065;-41
2023/10/04 07:03:05;;;;;;;17.50;11.48;;;11.30;99.90;;;;;;5029941;28;20117;-42
2023/10/04 07:05:37;;;;;;;17.15;10.95;;;11.20;99.90;;;;;;5018483;28;20134;-42
2023/10/04 07:08:06;;;;;;;18.83;11.38;;;11.30;99.90;;;;;;5017917;28;20034;-42
2023/10/04 07:10:35;;;;;;;18.20;10.88;;;11.30;99.90;;;;;;5017753;28;20041;-42
2023/10/04 07:13:03;;;;;;;17.23;11.70;;;11.40;99.90;;;;;;5020375;28;20134;-41
2023/10/04 07:15:35;;;;;;;17.85;11.82;;;11.50;99.90;;;;;;5020997;28;20473;-40
2023/10/04 07:18:09;;;;;;;16.77;11.25;;;11.40;99.90;;;;;;5018913;28;20065;-41
2023/10/04 07:20:39;;;;;;;14.13;10.82;;;11.70;99.90;;;;;;5018092;28;20046;-41
2023/10/04 07:23:08;;;;;;;15.80;11.18;;;11.90;99.90;;;;;;5019256;28;20175;-41
2023/10/04 07:25:38;;;;;;;17.45;12.38;;;12.10;99.90;;;;;;5017881;28;20570;-41
2023/10/04 07:28:09;;;;;;;16.75;11.77;;;12.30;99.90;;;;;;5016289;28;20113;-41
2023/10/04 07:30:39;;;;;;;16.70;12.27;;;12.20;99.90;;;;;;5015550;28;20119;-41
2023/10/04 07:33:07;;;;;;;16.75;11.88;;;12.30;99.90;;;;;;5012319;28;20045;-41
2023/10/04 07:35:35;;;;;;;16.98;11.98;;;12.60;99.90;;;;;;5017123;28;20533;-42
2023/10/04 07:38:05;;;;;;;16.73;11.55;;;13.00;99.90;;;;;;5013078;28;20049;-41
2023/10/04 07:40:33;;;;;;;19.58;11.70;;;13.20;99.90;;;;;;5010327;28;20053;-41
2023/10/04 07:43:01;;;;;;;14.75;11.02;;;13.20;99.90;;;;;;5018181;28;20476;-41
2023/10/04 07:45:30;;;;;;;16.27;11.77;;;12.90;99.90;;;;;;5023021;28;20159;-42
2023/10/04 07:48:00;;;;;;;18.23;12.30;;;12.90;99.90;;;;;;5013229;28;20050;-41
2023/10/04 07:50:28;;;;;;;15.82;10.68;;;12.90;99.90;;;;;;5014551;28;20049;-40
2023/10/04 07:52:59;;;;;;;17.70;11.93;;;12.90;99.90;;;;;;5013986;28;20065;-39
2023/10/04 07:55:27;;;;;;;20.48;11.27;;;12.90;99.90;;;;;;5011082;28;20057;-41
2023/10/04 07:57:59;;;;;;;18.83;11.65;;;12.90;99.90;;;;;;5011706;28;20069;-40
2023/10/04 08:00:26;;;;;;;17.08;11.90;;;13.00;99.90;;;;;;5014254;28;20048;-43
2023/10/04 08:02:54;;;;;;;19.52;11.68;;;13.10;99.90;;;;;;5010371;28;20089;-42
2023/10/04 08:05:23;;;;;;;21.38;11.18;;;13.30;99.90;;;;;;5018112;28;20506;-41
2023/10/04 08:07:53;;;;;;;17.08;11.63;;;13.40;99.90;;;;;;5011130;28;20088;-40
2023/10/04 08:10:23;;;;;;;15.23;10.85;;;13.30;99.90;;;;;;5009287;28;20045;-41
2023/10/04 08:12:54;;;;;;;15.10;10.25;;;13.40;99.90;;;;;;5012059;28;20380;-39
2023/10/04 08:15:26;;;;;;;17.20;11.10;;;13.40;99.90;;;;;;5021909;28;20041;-41
2023/10/04 08:17:55;;;;;;;15.02;10.70;;;13.40;99.90;;;;;;5011535;28;20091;-40
2023/10/04 08:20:24;;;;;;;14.57;10.02;;;13.50;99.90;;;;;;5023852;28;20081;-42
2023/10/04 08:22:51;;;;;;;15.45;9.68;;;13.50;99.90;;;;;;5014243;28;20113;-42
2023/10/04 08:25:20;;;;;;;14.88;9.32;;;13.70;99.90;;;;;;5016826;28;20148;-40
2023/10/04 08:27:48;;;;;;;13.82;8.95;;;13.70;99.90;;;;;;5013335;28;20100;-40
2023/10/04 08:30:17;;;;;;;11.95;8.20;;;13.80;99.90;;;;;;5009874;28;20402;-41
2023/10/04 08:32:47;;;;;;;13.88;9.65;;;13.80;99.90;;;;;;5011273;28;20630;-42
2023/10/04 08:35:22;;;;;;;15.38;8.43;;;13.90;99.90;;;;;;5020143;28;20049;-38
2023/10/04 08:37:55;;;;;;;11.80;7.65;;;14.00;99.90;;;;;;5017542;28;20046;-41
2023/10/04 08:40:23;;;;;;;12.02;7.65;;;14.20;99.90;;;;;;5019508;28;20045;-42
2023/10/04 08:42:50;;;;;;;13.02;7.03;;;14.20;99.90;;;;;;5011210;28;20462;-42
2023/10/04 08:45:24;;;;;;;11.95;7.65;;;14.40;99.90;;;;;;5017068;28;20123;-42
2023/10/04 08:47:57;;;;;;;10.25;6.85;;;14.50;99.90;;;;;;5018140;28;20137;-42
2023/10/04 08:50:55;;;;;;;13.43;7.03;;;14.50;99.90;;;;;;5009818;28;20050;-41
2023/10/04 08:53:49;;;;;;;12.45;6.57;;;14.70;99.90;;;;;;5013917;28;20049;-42
2023/10/04 08:56:18;;;;;;;11.82;6.18;;;14.70;99.90;;;;;;5010220;28;20129;-41
2023/10/04 08:58:46;;;;;;;11.05;6.78;;;14.80;99.90;;;;;;5014508;28;20038;-41
2023/10/04 09:01:15;;;;;;;9.45;5.70;;;14.80;99.90;;;;;;5017890;28;20054;-44
2023/10/04 09:03:44;;;;;;;9.45;5.38;;;14.90;99.90;;;;;;5023823;28;20049;-39
2023/10/04 09:06:14;;;;;;;9.88;5.25;;;15.00;99.90;;;;;;5014463;28;20049;-41
2023/10/04 09:08:42;;;;;;;9.15;6.10;;;15.10;99.90;;;;;;5015285;28;20049;-42
2023/10/04 09:11:15;;;;;;;10.32;5.00;;;15.00;99.90;;;;;;5017012;28;20497;-42
2023/10/04 09:13:44;;;;;;;7.93;4.30;;;14.90;99.90;;;;;;5010106;28;20345;-40
2023/10/04 09:16:24;;;;;;;7.50;4.13;;;15.00;99.90;;;;;;5019987;28;20373;-44
2023/10/04 09:19:17;;;;;;;6.32;3.80;;;15.20;99.90;;;;;;5009141;28;20479;-43
2023/10/04 09:21:45;;;;;;;7.60;4.25;;;15.20;99.90;;;;;;5010755;28;20080;-42
2023/10/04 09:24:14;;;;;;;6.03;3.50;;;15.20;99.90;;;;;;5012947;28;20073;-41
2023/10/04 09:26:56;;;;;;;11.43;4.45;;;15.40;99.90;;;;;;5011343;28;20049;-43
2023/10/04 09:29:30;;;;;;;8.47;4.37;;;15.70;99.90;;;;;;5011332;28;20052;-40
2023/10/04 09:31:57;;;;;;;10.02;4.25;;;15.90;99.90;;;;;;5017770;28;20056;-43
2023/10/04 09:34:25;;;;;;;9.70;4.75;;;16.10;99.90;;;;;;5010770;28;20129;-43
2023/10/04 09:36:53;;;;;;;10.55;4.43;;;16.20;99.90;;;;;;5014907;28;20060;-42
2023/10/04 09:39:27;;;;;;;7.82;4.53;;;16.50;99.90;;;;;;5009211;28;20596;-43
2023/10/04 09:41:56;;;;;;;6.80;3.95;;;16.50;99.90;;;;;;5010400;28;20494;-43
2023/10/04 09:44:29;;;;;;;8.25;3.95;;;16.70;99.90;;;;;;5019035;28;20054;-42
2023/10/04 09:47:02;;;;;;;7.13;3.97;;;16.80;99.90;;;;;;5009523;28;20046;-43
2023/10/04 09:49:32;;;;;;;5.85;3.83;;;16.90;99.90;;;;;;5019138;28;20091;-42
2023/10/04 09:52:01;;;;;;;7.35;3.72;;;16.70;99.90;;;;;;5009276;28;20092;-42
2023/10/04 09:54:28;;;;;;;4.55;3.50;;;16.90;99.90;;;;;;5009568;28;20117;-42
2023/10/04 09:56:57;;;;;;;6.72;3.70;;;17.00;99.90;;;;;;5012653;28;20644;-42
2023/10/04 09:59:24;;;;;;;6.90;3.85;;;16.90;99.90;;;;;;5008882;28;20650;-42
2023/10/04 10:01:56;;;;;;;10.15;4.03;;;16.90;99.90;;;;;;5011554;28;20049;-42
2023/10/04 10:04:25;;;;;;;5.35;3.83;;;17.10;99.90;;;;;;5013286;28;20045;-41
2023/10/04 10:07:06;;;;;;;5.63;3.80;;;17.10;99.90;;;;;;5014144;28;20132;-41
2023/10/04 10:09:40;;;;;;;5.55;4.28;;;17.00;99.90;;;;;;5009327;28;20510;-42
2023/10/04 10:12:31;;;;;;;6.38;3.70;;;17.30;99.90;;;;;;5019807;28;20657;-42
2023/10/04 10:15:02;;;;;;;8.93;4.20;;;17.30;99.90;;;;;;5022340;28;20228;-41
2023/10/04 10:17:31;;;;;;;7.50;4.10;;;17.30;99.90;;;;;;5017163;28;20100;-41
2023/10/04 10:20:00;;;;;;;8.95;4.05;;;17.20;99.90;;;;;;5013602;28;20037;-44
2023/10/04 10:22:28;;;;;;;8.90;4.10;;;17.30;99.90;;;;;;5023305;28;20046;-43
2023/10/04 10:24:55;;;;;;;7.32;4.00;;;17.60;99.90;;;;;;5014487;28;20153;-42
2023/10/04 10:27:28;;;;;;;5.05;3.63;;;17.80;99.90;;;;;;5012505;28;20056;-42
2023/10/04 10:30:03;;;;;;;5.93;4.25;;;17.70;99.90;;;;;;5008536;28;20057;-44
2023/10/04 10:32:30;;;;;;;5.13;3.72;;;17.40;99.90;;;;;;5009205;28;20057;-42
2023/10/04 10:35:04;;;;;;;8.05;4.18;;;17.40;99.90;;;;;;5023171;28;20053;-42
2023/10/04 10:37:38;;;;;;;4.50;3.90;;;17.50;99.90;;;;;;5015363;28;20066;-42
2023/10/04 10:40:37;;;;;;;5.07;3.90;;;17.70;99.90;;;;;;5020766;28;20049;-44
2023/10/04 10:43:09;;;;;;;5.68;4.25;;;17.80;99.90;;;;;;5015966;28;20052;-43
2023/10/04 10:45:37;;;;;;;6.63;4.28;;;18.20;99.90;;;;;;5017527;28;20042;-43
2023/10/04 10:48:08;;;;;;;6.13;3.97;;;18.50;99.90;;;;;;5009965;28;20049;-42
2023/10/04 10:50:38;;;;;;;5.70;4.07;;;18.80;99.90;;;;;;5013471;28;20062;-41
2023/10/04 10:53:13;;;;;;;7.68;4.40;;;19.10;99.90;;;;;;5011895;28;20042;-41
2023/10/04 10:55:41;;;;;;;6.45;4.30;;;19.30;99.90;;;;;;5013376;28;20046;-42
2023/10/04 10:58:10;;;;;;;8.57;4.22;;;19.20;99.90;;;;;;5015600;28;20049;-40
2023/10/04 11:00:38;;;;;;;5.28;4.20;;;19.10;99.90;;;;;;4997225;28;20196;-42
2023/10/04 11:03:09;;;;;;;6.22;4.72;;;18.90;99.90;;;;;;5020745;28;20052;-42
2023/10/04 11:05:38;;;;;;;5.38;4.40;;;19.00;99.90;;;;;;5017965;28;20092;-39
2023/10/04 11:08:08;;;;;;;7.97;4.68;;;19.30;99.90;;;;;;5013980;28;20424;-43
2023/10/04 11:10:38;;;;;;;5.82;4.50;;;19.10;99.90;;;;;;5018167;28;20100;-42
2023/10/04 11:13:08;;;;;;;5.72;4.60;;;18.40;99.90;;;;;;5028745;28;20045;-42
2023/10/04 11:15:36;;;;;;;4.82;4.07;;;18.10;99.90;;;;;;5023627;28;20045;-42
2023/10/04 11:18:06;;;;;;;6.38;4.65;;;18.30;99.90;;;;;;5026839;28;20045;-41
2023/10/04 11:20:37;;;;;;;4.90;4.22;;;18.80;99.90;;;;;;5017617;28;20537;-44
2023/10/04 11:23:05;;;;;;;5.57;4.20;;;18.80;99.90;;;;;;5032072;28;20094;-42
2023/10/04 11:25:33;;;;;;;7.82;4.47;;;19.00;99.90;;;;;;5020926;28;20430;-41
2023/10/04 11:28:00;;;;;;;6.28;4.32;;;19.50;99.90;;;;;;5013979;28;20053;-40
2023/10/04 11:30:33;;;;;;;5.38;4.40;;;19.40;99.90;;;;;;5017835;28;20077;-42
2023/10/04 11:33:01;;;;;;;5.15;4.30;;;19.40;99.90;;;;;;5011086;28;20060;-42
2023/10/04 11:35:33;;;;;;;5.18;4.50;;;19.80;99.90;;;;;;5019750;28;20048;-41
2023/10/04 11:38:05;;;;;;;5.68;4.93;;;20.70;99.90;;;;;;5012791;28;20392;-41
2023/10/04 11:40:33;;;;;;;7.25;4.43;;;21.00;99.90;;;;;;5015310;28;20552;-42
2023/10/04 11:43:03;;;;;;;7.95;4.40;;;21.30;99.90;;;;;;5014547;28;20053;-43
2023/10/04 11:45:31;;;;;;;5.95;4.55;;;21.20;99.90;;;;;;5015426;28;20050;-43
2023/10/04 11:48:05;;;;;;;5.88;4.38;;;21.00;99.90;;;;;;5019286;28;20061;-43
2023/10/04 11:50:53;;;;;;;5.32;4.53;;;20.60;99.90;;;;;;5017045;28;20463;-40
2023/10/04 11:53:34;;;;;;;5.60;4.70;;;20.00;99.90;;;;;;5016481;28;20046;-43
2023/10/04 11:56:06;;;;;;;6.40;4.63;;;20.30;99.90;;;;;;5021911;28;20069;-40
2023/10/04 11:58:49;;;;;;;5.20;4.00;;;20.50;99.90;;;;;;5022948;28;20311;-42
2023/10/04 12:01:19;;;;;;;6.25;4.82;;;20.30;99.90;;;;;;5018153;28;20064;-40
2023/10/04 12:03:49;;;;;;;8.88;4.97;;;20.20;99.90;;;;;;5016980;28;20060;-44
2023/10/04 12:06:30;;;;;;;7.20;4.97;;;21.00;99.90;;;;;;5013461;28;20503;-41
2023/10/04 12:08:58;;;;;;;6.43;4.85;;;21.30;99.90;;;;;;5016780;28;20046;-41
2023/10/04 12:11:35;;;;;;;6.70;4.70;;;21.20;99.90;;;;;;5020398;28;20109;-40
2023/10/04 12:14:07;;;;;;;6.70;4.43;;;21.60;99.90;;;;;;5027860;28;20334;-41
2023/10/04 12:16:41;;;;;;;7.45;4.78;;;21.90;99.90;;;;;;5023924;28;20045;-43
2023/10/04 12:19:09;;;;;;;7.22;4.55;;;20.80;99.90;;;;;;5023874;28;20046;-42
2023/10/04 12:21:37;;;;;;;5.47;4.88;;;21.00;99.90;;;;;;5021744;28;20481;-40
2023/10/04 12:24:06;;;;;;;9.77;4.88;;;20.60;99.90;;;;;;5019039;28;20693;-40
2023/10/04 12:26:33;;;;;;;5.90;4.97;;;20.00;99.90;;;;;;5017555;28;20423;-41
2023/10/04 12:29:00;;;;;;;5.50;4.60;;;20.60;99.90;;;;;;5011044;28;20069;-41
2023/10/04 12:31:28;;;;;;;5.60;4.60;;;20.70;99.90;;;;;;5014029;28;20100;-41
2023/10/04 12:33:59;;;;;;;7.97;4.55;;;21.50;99.90;;;;;;5015465;28;20091;-42
2023/10/04 12:36:26;;;;;;;6.72;4.70;;;22.30;99.90;;;;;;5018906;28;20042;-42
2023/10/04 12:38:53;;;;;;;7.50;4.70;;;23.40;99.90;;;;;;5020725;28;20050;-40
2023/10/04 12:41:21;;;;;;;7.00;5.18;;;23.90;99.90;;;;;;5024460;28;20042;-44
2023/10/04 12:43:48;;;;;;;5.32;4.63;;;25.00;99.90;;;;;;5020302;28;20124;-40
2023/10/04 12:46:16;;;;;;;5.22;4.55;;;25.00;97.80;;;;;;5012690;28;20074;-40
2023/10/04 12:48:43;;;;;;;7.22;5.47;;;25.20;96.70;;;;;;5016170;28;20133;-39
2023/10/04 12:51:11;;;;;;;5.88;5.00;;;26.40;95.50;;;;;;5013744;28;20065;-42
2023/10/04 12:53:38;;;;;;;6.50;5.50;;;27.40;92.00;;;;;;5021002;28;20137;-42
2023/10/04 12:56:07;;;;;;;6.03;5.40;;;27.80;86.20;;;;;;5018862;28;20063;-40
2023/10/04 12:58:34;;;;;;;6.20;5.60;;;27.30;83.00;;;;;;5024597;28;20072;-43
2023/10/04 13:01:05;;;;;;;6.40;5.72;;;27.80;81.30;;;;;;5020047;28;20064;-42